createdAt,value
2018-01-07T00:01:17.619Z,85.00
2018-01-07T00:03:45.078Z,84.80
2018-01-07T00:06:12.530Z,84.70
2018-01-07T00:08:40.766Z,85.30
2018-01-07T00:11:08.232Z,85.20
2018-01-07T00:13:35.689Z,85.00
2018-01-07T00:16:03.145Z,84.80
2018-01-07T00:18:30.600Z,85.00
2018-01-07T00:20:58.055Z,84.80
2018-01-07T00:23:25.616Z,84.90
2018-01-07T00:25:53.178Z,85.00
2018-01-07T00:28:21.432Z,84.60
2018-01-07T00:30:48.888Z,84.60
2018-01-07T00:33:16.457Z,84.70
2018-01-07T00:35:43.974Z,84.50
2018-01-07T00:38:11.424Z,84.80
2018-01-07T00:40:38.879Z,84.90
2018-01-07T00:43:06.338Z,83.30
2018-01-07T00:45:33.852Z,83.50
2018-01-07T00:48:01.458Z,83.70
2018-01-07T00:50:29.665Z,83.30
2018-01-07T00:52:57.128Z,83.30
2018-01-07T00:55:24.590Z,83.40
2018-01-07T00:57:52.043Z,83.60
2018-01-07T01:00:19.512Z,83.60
2018-01-07T01:02:47.080Z,83.50
2018-01-07T01:05:14.538Z,83.20
2018-01-07T01:07:42.804Z,83.50
2018-01-07T01:10:10.260Z,83.50
2018-01-07T01:12:37.716Z,82.50
2018-01-07T01:15:05.184Z,83.10
2018-01-07T01:17:32.630Z,83.50
2018-01-07T01:20:00.092Z,82.80
2018-01-07T01:22:27.549Z,82.80
2018-01-07T01:24:55.788Z,83.30
2018-01-07T01:27:23.324Z,83.60
2018-01-07T01:29:50.765Z,83.40
2018-01-07T01:32:18.292Z,82.50
2018-01-07T01:34:45.749Z,82.90
2018-01-07T01:37:13.299Z,82.20
2018-01-07T01:39:40.847Z,81.50
2018-01-07T01:42:08.300Z,82.30
2018-01-07T01:44:35.829Z,82.60
2018-01-07T01:47:03.272Z,82.80
2018-01-07T01:49:30.724Z,82.90
2018-01-07T01:51:58.180Z,83.10
2018-01-07T01:54:25.709Z,83.20
2018-01-07T01:56:53.166Z,83.20
2018-01-07T01:59:20.629Z,82.80
2018-01-07T02:01:48.169Z,83.10
2018-01-07T02:04:15.730Z,83.10
2018-01-07T02:06:43.294Z,83.50
2018-01-07T02:09:10.851Z,83.30
2018-01-07T02:11:38.461Z,83.50
2018-01-07T02:14:05.913Z,83.90
2018-01-07T02:16:33.410Z,83.50
2018-01-07T02:19:00.864Z,83.70
2018-01-07T02:21:28.325Z,83.80
2018-01-07T02:23:55.786Z,83.60
2018-01-07T02:26:25.588Z,83.50
2018-01-07T02:28:53.115Z,83.50
2018-01-07T02:31:20.560Z,83.30
2018-01-07T02:33:48.077Z,83.30
2018-01-07T02:36:15.550Z,83.50
2018-01-07T02:38:43.808Z,83.70
2018-01-07T02:41:11.387Z,83.70
2018-01-07T02:43:39.613Z,84.10
2018-01-07T02:46:07.105Z,83.90
2018-01-07T02:48:34.653Z,83.70
2018-01-07T02:51:02.230Z,83.80
2018-01-07T02:53:29.686Z,83.70
2018-01-07T02:55:57.932Z,83.40
2018-01-07T02:58:25.418Z,83.40
2018-01-07T03:00:53.006Z,81.30
2018-01-07T03:03:20.463Z,82.10
2018-01-07T03:05:47.929Z,81.10
2018-01-07T03:08:15.441Z,80.60
2018-01-07T03:10:43.048Z,80.10
2018-01-07T03:13:10.492Z,79.70
2018-01-07T03:15:38.064Z,79.20
2018-01-07T03:18:05.518Z,79.20
2018-01-07T03:20:32.993Z,79.60
2018-01-07T03:23:00.449Z,79.40
2018-01-07T03:25:27.906Z,79.60
2018-01-07T03:27:55.381Z,80.10
2018-01-07T03:30:22.841Z,79.70
2018-01-07T03:32:50.404Z,79.20
2018-01-07T03:35:17.876Z,79.90
2018-01-07T03:37:46.153Z,79.20
2018-01-07T03:40:13.700Z,79.10
2018-01-07T03:42:41.210Z,78.90
2018-01-07T03:45:08.671Z,79.50
2018-01-07T03:47:36.130Z,79.60
2018-01-07T03:50:03.593Z,79.70
2018-01-07T03:52:31.071Z,79.80
2018-01-07T03:54:58.515Z,79.80
2018-01-07T03:57:25.972Z,79.30
2018-01-07T03:59:53.509Z,78.90
2018-01-07T04:02:21.014Z,79.00
2018-01-07T04:04:48.489Z,79.20
2018-01-07T04:07:16.756Z,79.40
2018-01-07T04:09:44.221Z,79.30
2018-01-07T04:12:12.436Z,79.50
2018-01-07T04:14:39.925Z,79.60
2018-01-07T04:17:07.387Z,79.30
2018-01-07T04:19:34.904Z,79.40
2018-01-07T04:22:02.405Z,78.80
2018-01-07T04:24:29.880Z,78.50
2018-01-07T04:26:58.118Z,78.90
2018-01-07T04:29:25.616Z,78.70
2018-01-07T04:31:53.874Z,78.30
2018-01-07T04:34:21.327Z,78.30
2018-01-07T04:36:49.547Z,78.50
2018-01-07T04:39:17.078Z,78.60
2018-01-07T04:41:45.309Z,79.20
2018-01-07T04:44:12.764Z,79.20
2018-01-07T04:46:40.259Z,79.20
2018-01-07T04:49:07.719Z,78.80
2018-01-07T04:51:35.954Z,79.40
2018-01-07T04:54:03.433Z,79.30
2018-01-07T04:56:31.051Z,79.10
2018-01-07T04:58:58.628Z,78.80
2018-01-07T05:01:26.084Z,78.70
2018-01-07T05:03:53.669Z,78.90
2018-01-07T05:06:21.141Z,79.00
2018-01-07T05:08:49.396Z,80.10
2018-01-07T05:11:16.857Z,79.30
2018-01-07T05:13:44.472Z,79.50
2018-01-07T05:16:11.980Z,79.10
2018-01-07T05:18:39.537Z,79.40
2018-01-07T05:21:07.097Z,79.00
2018-01-07T05:23:34.568Z,79.30
2018-01-07T05:26:02.799Z,79.70
2018-01-07T05:28:30.257Z,79.60
2018-01-07T05:30:57.715Z,79.60
2018-01-07T05:33:25.184Z,79.90
2018-01-07T05:35:52.652Z,79.30
2018-01-07T05:38:20.224Z,79.30
2018-01-07T05:40:48.445Z,80.00
2018-01-07T05:43:15.961Z,79.80
2018-01-07T05:45:44.220Z,79.30
2018-01-07T05:48:11.680Z,79.30
2018-01-07T05:50:39.136Z,79.70
2018-01-07T05:53:06.692Z,79.60
2018-01-07T05:55:34.161Z,79.60
2018-01-07T05:58:02.385Z,80.00
2018-01-07T06:00:29.853Z,80.00
2018-01-07T06:02:57.336Z,79.70
2018-01-07T06:05:24.849Z,79.60
2018-01-07T06:07:52.364Z,80.00
2018-01-07T06:10:20.634Z,81.50
2018-01-07T06:12:48.100Z,80.60
2018-01-07T06:15:16.415Z,80.10
2018-01-07T06:17:43.878Z,80.00
2018-01-07T06:20:11.341Z,80.50
2018-01-07T06:22:38.832Z,80.70
2018-01-07T06:25:06.293Z,80.30
2018-01-07T06:27:33.744Z,80.50
2018-01-07T06:30:01.307Z,79.70
2018-01-07T06:32:28.864Z,79.50
2018-01-07T06:34:56.425Z,79.60
2018-01-07T06:37:23.985Z,79.60
2018-01-07T06:39:51.540Z,80.00
2018-01-07T06:42:19.101Z,80.30
2018-01-07T06:44:47.389Z,80.20
2018-01-07T06:47:15.626Z,79.90
2018-01-07T06:49:43.081Z,79.80
2018-01-07T06:52:10.541Z,79.70
2018-01-07T06:54:38.019Z,79.90
2018-01-07T06:57:05.585Z,80.80
2018-01-07T06:59:33.076Z,82.30
2018-01-07T07:02:00.533Z,79.90
2018-01-07T07:04:28.002Z,79.50
2018-01-07T07:06:55.459Z,79.30
2018-01-07T07:09:22.983Z,80.00
2018-01-07T07:11:51.201Z,81.90
2018-01-07T07:14:18.747Z,81.80
2018-01-07T07:16:46.202Z,80.30
2018-01-07T07:19:13.681Z,80.70
2018-01-07T07:21:41.128Z,79.60
2018-01-07T07:24:08.601Z,80.70
2018-01-07T07:26:36.080Z,80.20
2018-01-07T07:29:03.553Z,80.20
2018-01-07T07:31:31.767Z,79.40
2018-01-07T07:33:59.233Z,79.40
2018-01-07T07:36:26.686Z,79.20
2018-01-07T07:38:54.154Z,78.30
2018-01-07T07:41:21.617Z,77.60
2018-01-07T07:43:49.072Z,78.20
2018-01-07T07:46:16.752Z,77.70
2018-01-07T07:48:44.313Z,77.90
2018-01-07T07:51:11.869Z,78.20
2018-01-07T07:53:40.088Z,78.50
2018-01-07T07:56:07.554Z,77.70
2018-01-07T07:58:35.018Z,78.10
2018-01-07T08:01:02.519Z,77.80
2018-01-07T08:03:30.026Z,78.40
2018-01-07T08:05:57.501Z,78.10
2018-01-07T08:08:24.968Z,78.40
2018-01-07T08:10:52.428Z,77.60
2018-01-07T08:13:19.904Z,77.70
2018-01-07T08:15:48.242Z,79.00
2018-01-07T08:18:16.454Z,78.00
2018-01-07T08:20:44.012Z,78.10
2018-01-07T08:23:11.481Z,78.30
2018-01-07T08:25:39.722Z,77.80
2018-01-07T08:28:07.179Z,77.60
2018-01-07T08:30:34.761Z,77.50
2018-01-07T08:33:02.991Z,77.40
2018-01-07T08:35:30.492Z,77.30
2018-01-07T08:37:59.485Z,77.60
2018-01-07T08:40:27.034Z,77.60
2018-01-07T08:42:54.605Z,77.10
2018-01-07T08:45:22.081Z,76.00
2018-01-07T08:47:50.317Z,77.20
2018-01-07T08:50:17.769Z,77.20
2018-01-07T08:52:45.252Z,77.30
2018-01-07T08:55:12.713Z,77.40
2018-01-07T08:57:40.982Z,77.80
2018-01-07T09:00:08.452Z,77.00
2018-01-07T09:02:36.682Z,77.60
2018-01-07T09:05:04.176Z,77.40
2018-01-07T09:07:32.448Z,76.50
2018-01-07T09:09:59.990Z,76.20
2018-01-07T09:12:27.469Z,75.90
2018-01-07T09:14:54.939Z,75.50
2018-01-07T09:17:22.479Z,76.00
2018-01-07T09:19:50.038Z,75.40
2018-01-07T09:22:17.495Z,76.40
2018-01-07T09:24:45.095Z,75.90
2018-01-07T09:27:12.563Z,75.70
2018-01-07T09:29:40.069Z,77.00
2018-01-07T09:32:07.626Z,75.70
2018-01-07T09:34:35.089Z,74.80
2018-01-07T09:37:02.545Z,74.30
2018-01-07T09:39:30.778Z,75.50
2018-01-07T09:41:58.232Z,74.70
2018-01-07T09:44:25.709Z,74.40
2018-01-07T09:46:53.166Z,84.80
2018-01-07T09:49:20.645Z,78.60
2018-01-07T09:51:48.211Z,81.40
2018-01-07T09:54:16.477Z,74.10
2018-01-07T09:56:44.708Z,73.80
2018-01-07T09:59:12.213Z,74.20
2018-01-07T10:01:40.440Z,76.20
2018-01-07T10:04:08.678Z,75.80
2018-01-07T10:06:37.041Z,73.60
2018-01-07T10:09:06.187Z,72.60
2018-01-07T10:11:33.650Z,72.50
2018-01-07T10:14:01.115Z,72.80
2018-01-07T10:16:28.569Z,72.60
2018-01-07T10:18:56.028Z,73.20
2018-01-07T10:21:23.485Z,72.60
2018-01-07T10:23:50.972Z,73.10
2018-01-07T10:26:18.474Z,71.80
2018-01-07T10:28:45.943Z,72.60
2018-01-07T10:31:13.401Z,72.90
2018-01-07T10:33:40.869Z,73.20
2018-01-07T10:36:08.330Z,72.90
2018-01-07T10:38:35.784Z,73.30
2018-01-07T10:41:03.245Z,72.20
2018-01-07T10:43:31.985Z,72.90
2018-01-07T10:45:59.470Z,72.70
2018-01-07T10:48:27.018Z,73.60
2018-01-07T10:50:54.486Z,73.30
2018-01-07T10:53:21.980Z,72.90
2018-01-07T10:55:49.529Z,71.70
2018-01-07T10:58:16.982Z,72.40
2018-01-07T11:00:50.121Z,72.10
2018-01-07T11:03:17.582Z,72.40
2018-01-07T11:05:45.093Z,71.70
2018-01-07T11:08:12.574Z,71.60
2018-01-07T11:10:40.796Z,71.20
2018-01-07T11:13:08.292Z,71.20
2018-01-07T11:15:36.104Z,70.70
2018-01-07T11:18:03.596Z,70.60
2018-01-07T11:20:31.176Z,70.20
2018-01-07T11:22:58.735Z,70.10
2018-01-07T11:25:26.648Z,71.10
2018-01-07T11:27:55.656Z,69.20
2018-01-07T11:30:23.234Z,69.10
2018-01-07T11:32:52.293Z,67.60
2018-01-07T11:35:19.861Z,67.60
2018-01-07T11:37:47.326Z,69.20
2018-01-07T11:40:14.781Z,68.90
2018-01-07T11:42:42.248Z,68.70
2018-01-07T11:45:09.701Z,69.10
2018-01-07T11:47:37.176Z,69.00
2018-01-07T11:50:04.645Z,69.20
2018-01-07T11:52:32.207Z,70.50
2018-01-07T11:54:59.809Z,70.20
2018-01-07T11:57:27.268Z,68.50
2018-01-07T11:59:54.724Z,69.50
2018-01-07T12:02:22.194Z,69.10
2018-01-07T12:04:49.695Z,68.60
2018-01-07T12:07:17.157Z,69.40
2018-01-07T12:09:45.413Z,68.40
2018-01-07T12:12:12.876Z,68.40
2018-01-07T12:14:40.328Z,68.50
2018-01-07T12:17:07.886Z,68.30
2018-01-07T12:19:35.364Z,69.40
2018-01-07T12:22:03.590Z,69.40
2018-01-07T12:24:31.100Z,69.30
2018-01-07T12:26:59.324Z,71.20
2018-01-07T12:29:26.793Z,71.10
2018-01-07T12:31:54.296Z,70.50
2018-01-07T12:34:22.521Z,71.00
2018-01-07T12:36:49.980Z,71.00
2018-01-07T12:39:17.568Z,70.60
2018-01-07T12:41:45.032Z,69.80
2018-01-07T12:44:13.266Z,71.20
2018-01-07T12:46:40.743Z,71.20
2018-01-07T12:49:08.197Z,70.60
2018-01-07T12:51:35.726Z,70.50
2018-01-07T12:54:03.186Z,70.00
2018-01-07T12:56:30.668Z,70.20
2018-01-07T12:58:58.246Z,70.60
2018-01-07T13:01:26.477Z,71.70
2018-01-07T13:03:53.933Z,71.20
2018-01-07T13:06:21.394Z,71.80
2018-01-07T13:08:48.849Z,71.90
2018-01-07T13:11:17.526Z,71.50
2018-01-07T13:13:44.977Z,70.90
2018-01-07T13:16:12.451Z,70.80
2018-01-07T13:18:39.909Z,71.10
2018-01-07T13:21:07.377Z,71.40
2018-01-07T13:23:35.004Z,70.50
2018-01-07T13:26:02.461Z,71.30
2018-01-07T13:28:30.279Z,70.90
2018-01-07T13:30:57.730Z,70.90
2018-01-07T13:33:25.280Z,70.90
2018-01-07T13:35:52.737Z,71.00
2018-01-07T13:38:20.193Z,70.90
2018-01-07T13:40:47.666Z,70.70
2018-01-07T13:43:15.129Z,69.90
2018-01-07T13:45:43.361Z,69.30
2018-01-07T13:48:10.821Z,69.10
2018-01-07T13:50:38.286Z,69.90
2018-01-07T13:53:05.742Z,70.00
2018-01-07T13:55:33.200Z,70.00
2018-01-07T13:58:00.662Z,69.60
2018-01-07T14:00:28.889Z,69.90
2018-01-07T14:02:56.391Z,69.90
2018-01-07T14:05:23.987Z,70.10
2018-01-07T14:07:51.445Z,73.70
2018-01-07T14:10:18.917Z,74.60
2018-01-07T14:12:46.429Z,70.30
2018-01-07T14:15:13.904Z,69.00
2018-01-07T14:17:42.135Z,70.50
2018-01-07T14:20:09.613Z,70.50
2018-01-07T14:22:38.604Z,70.50
2018-01-07T14:25:06.065Z,70.50
2018-01-07T14:27:33.562Z,71.00
2018-01-07T14:30:01.797Z,70.50
2018-01-07T14:32:29.258Z,70.60
2018-01-07T14:34:56.817Z,71.00
2018-01-07T14:37:24.272Z,71.20
2018-01-07T14:39:51.838Z,71.20
2018-01-07T14:42:19.389Z,70.90
2018-01-07T14:44:46.847Z,71.60
2018-01-07T14:47:14.410Z,71.60
2018-01-07T14:49:41.856Z,72.50
2018-01-07T14:52:09.323Z,71.70
2018-01-07T14:54:36.793Z,72.30
2018-01-07T14:57:05.020Z,73.00
2018-01-07T14:59:32.505Z,72.30
2018-01-07T15:01:59.970Z,72.40
2018-01-07T15:04:27.517Z,72.60
2018-01-07T15:06:54.976Z,72.00
2018-01-07T15:09:22.462Z,72.30
2018-01-07T15:11:50.709Z,72.60
2018-01-07T15:14:18.166Z,72.60
2018-01-07T15:16:45.631Z,72.60
2018-01-07T15:19:13.114Z,72.70
2018-01-07T15:21:40.580Z,73.50
2018-01-07T15:24:08.817Z,72.80
2018-01-07T15:26:36.287Z,73.20
2018-01-07T15:29:04.537Z,72.80
2018-01-07T15:31:31.989Z,73.50
2018-01-07T15:33:59.553Z,72.90
2018-01-07T15:36:27.009Z,73.10
2018-01-07T15:38:54.508Z,73.30
2018-01-07T15:41:21.956Z,73.60
2018-01-07T15:43:50.208Z,74.00
2018-01-07T15:46:17.666Z,73.90
2018-01-07T15:48:45.217Z,74.00
2018-01-07T15:51:12.764Z,74.10
2018-01-07T15:53:40.229Z,74.30
2018-01-07T15:56:07.694Z,74.10
2018-01-07T15:58:35.240Z,74.10
2018-01-07T16:01:02.696Z,74.20
2018-01-07T16:03:30.165Z,74.70
2018-01-07T16:05:57.719Z,74.10
2018-01-07T16:08:25.277Z,74.00
2018-01-07T16:10:52.790Z,73.70
2018-01-07T16:13:20.251Z,74.50
2018-01-07T16:15:47.734Z,73.80
2018-01-07T16:18:15.189Z,73.90
2018-01-07T16:20:42.638Z,74.20
2018-01-07T16:23:10.122Z,74.50
2018-01-07T16:25:37.672Z,74.60
2018-01-07T16:28:05.129Z,74.50
2018-01-07T16:30:32.597Z,74.50
2018-01-07T16:33:00.153Z,74.90
2018-01-07T16:35:27.607Z,75.00
2018-01-07T16:37:55.173Z,74.70
2018-01-07T16:40:22.725Z,74.90
2018-01-07T16:42:50.283Z,74.90
2018-01-07T16:45:17.749Z,74.90
2018-01-07T16:47:45.301Z,74.70
2018-01-07T16:50:14.275Z,75.00
2018-01-07T16:52:41.749Z,75.00
2018-01-07T16:55:09.304Z,75.00
2018-01-07T16:57:36.902Z,75.00
2018-01-07T17:00:04.357Z,75.20
2018-01-07T17:02:31.828Z,75.60
2018-01-07T17:04:59.293Z,75.60
2018-01-07T17:07:26.945Z,76.00
2018-01-07T17:09:54.409Z,75.60
2018-01-07T17:12:21.909Z,75.50
2018-01-07T17:14:49.368Z,75.70
2018-01-07T17:17:16.820Z,75.60
2018-01-07T17:19:44.385Z,75.60
2018-01-07T17:22:11.837Z,75.40
2018-01-07T17:24:39.401Z,75.80
2018-01-07T17:27:06.866Z,76.60
2018-01-07T17:29:34.326Z,75.90
2018-01-07T17:32:02.545Z,76.40
2018-01-07T17:34:30.001Z,76.20
2018-01-07T17:36:57.464Z,76.40
2018-01-07T17:39:24.955Z,76.50
2018-01-07T17:41:52.413Z,76.40
2018-01-07T17:44:19.973Z,76.40
2018-01-07T17:46:47.460Z,76.60
2018-01-07T17:49:15.683Z,77.10
2018-01-07T17:51:43.150Z,77.10
2018-01-07T17:54:10.609Z,76.70
2018-01-07T17:56:38.069Z,76.60
2018-01-07T17:59:05.626Z,80.30
2018-01-07T18:01:34.620Z,76.80
2018-01-07T18:04:02.078Z,76.70
2018-01-07T18:06:29.532Z,76.70
2018-01-07T18:08:57.671Z,76.70
2018-01-07T18:11:25.128Z,77.00
2018-01-07T18:13:52.621Z,76.90
2018-01-07T18:16:20.085Z,76.80
2018-01-07T18:18:47.541Z,76.80
2018-01-07T18:21:15.009Z,76.90
2018-01-07T18:23:42.462Z,77.00
2018-01-07T18:26:10.693Z,78.00
2018-01-07T18:28:38.177Z,77.20
2018-01-07T18:31:05.658Z,77.30
2018-01-07T18:33:33.919Z,77.50
2018-01-07T18:36:01.528Z,77.50
2018-01-07T18:38:28.993Z,77.50
2018-01-07T18:40:56.489Z,77.30
2018-01-07T18:43:23.947Z,77.40
2018-01-07T18:45:51.505Z,77.30
2018-01-07T18:48:19.062Z,77.40
2018-01-07T18:50:46.621Z,77.40
2018-01-07T18:53:14.080Z,77.50
2018-01-07T18:55:42.408Z,77.30
2018-01-07T18:58:09.900Z,77.40
2018-01-07T19:00:37.332Z,77.70
2018-01-07T19:03:04.824Z,77.40
2018-01-07T19:05:32.386Z,77.60
2018-01-07T19:07:59.836Z,77.70
2018-01-07T19:10:27.300Z,77.60
2018-01-07T19:12:54.874Z,77.80
2018-01-07T19:15:22.359Z,78.00
2018-01-07T19:17:49.903Z,78.20
2018-01-07T19:20:18.202Z,78.30
2018-01-07T19:22:45.674Z,78.20
2018-01-07T19:25:13.219Z,78.30
2018-01-07T19:27:40.673Z,78.60
2018-01-07T19:30:08.149Z,78.50
2018-01-07T19:32:35.632Z,78.40
2018-01-07T19:35:04.605Z,78.40
2018-01-07T19:37:32.138Z,78.40
2018-01-07T19:39:59.580Z,78.70
2018-01-07T19:42:27.051Z,78.70
2018-01-07T19:44:54.516Z,78.50
2018-01-07T19:47:22.019Z,78.60
2018-01-07T19:49:49.477Z,78.60
2018-01-07T19:52:16.933Z,79.30
2018-01-07T19:54:44.394Z,79.20
2018-01-07T19:57:11.848Z,78.70
2018-01-07T19:59:39.308Z,79.70
2018-01-07T20:02:06.857Z,78.90
2018-01-07T20:04:34.321Z,79.10
2018-01-07T20:07:02.590Z,79.80
2018-01-07T20:09:30.162Z,78.80
2018-01-07T20:11:58.384Z,78.40
2018-01-07T20:14:25.875Z,78.40
2018-01-07T20:16:53.336Z,78.50
2018-01-07T20:19:20.801Z,78.80
2018-01-07T20:21:48.261Z,79.60
2018-01-07T20:24:16.530Z,79.00
2018-01-07T20:26:44.030Z,78.90
2018-01-07T20:29:11.493Z,78.80
2018-01-07T20:31:38.992Z,79.20
2018-01-07T20:34:06.561Z,79.10
2018-01-07T20:36:34.106Z,78.90
2018-01-07T20:39:01.561Z,79.00
2018-01-07T20:41:29.077Z,79.10
2018-01-07T20:43:56.572Z,79.20
2018-01-07T20:46:24.030Z,79.40
2018-01-07T20:48:51.592Z,79.60
2018-01-07T20:51:19.149Z,79.90
2018-01-07T20:53:46.617Z,79.90
2018-01-07T20:56:14.185Z,79.60
2018-01-07T20:58:41.737Z,79.70
2018-01-07T21:01:09.196Z,79.60
2018-01-07T21:03:36.648Z,79.90
2018-01-07T21:06:04.117Z,79.90
2018-01-07T21:08:32.430Z,79.70
2018-01-07T21:10:59.894Z,79.70
2018-01-07T21:13:27.385Z,79.60
2018-01-07T21:15:54.949Z,79.70
2018-01-07T21:18:22.400Z,79.60
2018-01-07T21:20:51.385Z,79.60
2018-01-07T21:23:18.853Z,79.50
2018-01-07T21:25:46.419Z,79.90
2018-01-07T21:28:13.877Z,79.90
2018-01-07T21:30:42.145Z,80.00
2018-01-07T21:33:10.397Z,80.40
2018-01-07T21:35:37.877Z,80.30
2018-01-07T21:38:05.334Z,80.30
2018-01-07T21:40:32.817Z,80.30
2018-01-07T21:43:01.050Z,80.50
2018-01-07T21:45:28.544Z,80.40
2018-01-07T21:47:56.774Z,80.60
2018-01-07T21:50:24.241Z,80.60
2018-01-07T21:52:51.709Z,80.50
2018-01-07T21:55:19.376Z,80.80
2018-01-07T21:57:46.836Z,81.00
2018-01-07T22:00:39.526Z,80.70
2018-01-07T22:03:18.970Z,80.80
2018-01-07T22:05:54.298Z,81.00
2018-01-07T22:08:21.770Z,81.90
2018-01-07T22:10:49.248Z,81.40
2018-01-07T22:13:16.724Z,81.50
2018-01-07T22:15:44.183Z,81.50
2018-01-07T22:18:12.409Z,81.40
2018-01-07T22:20:39.876Z,81.40
2018-01-07T22:23:07.352Z,81.80
2018-01-07T22:25:34.809Z,81.60
2018-01-07T22:28:02.442Z,81.70
2018-01-07T22:30:29.955Z,81.30
2018-01-07T22:32:57.500Z,81.20
2018-01-07T22:35:24.965Z,81.10
2018-01-07T22:37:53.193Z,81.80
2018-01-07T22:40:20.673Z,81.10
2018-01-07T22:42:48.139Z,81.20
2018-01-07T22:45:15.606Z,81.20
2018-01-07T22:47:48.870Z,81.30
2018-01-07T22:50:16.845Z,81.30
2018-01-07T22:52:44.312Z,81.40
2018-01-07T22:55:11.771Z,81.60
2018-01-07T22:57:39.238Z,81.50
2018-01-07T23:00:06.701Z,81.50
2018-01-07T23:02:34.203Z,81.40
2018-01-07T23:05:01.669Z,82.50
2018-01-07T23:07:29.144Z,82.00
2018-01-07T23:09:56.617Z,81.80
2018-01-07T23:12:24.079Z,81.60
2018-01-07T23:14:51.538Z,81.80
2018-01-07T23:17:19.756Z,81.70
2018-01-07T23:19:47.225Z,81.60
2018-01-07T23:22:14.701Z,81.50
2018-01-07T23:24:42.169Z,81.50
2018-01-07T23:27:11.141Z,81.70
2018-01-07T23:29:38.603Z,82.40
2018-01-07T23:32:06.077Z,81.40
2018-01-07T23:34:33.553Z,81.60
2018-01-07T23:37:01.805Z,82.80
2018-01-07T23:39:29.265Z,81.90
2018-01-07T23:41:56.738Z,82.30
2018-01-07T23:44:24.294Z,82.20
2018-01-07T23:46:51.765Z,82.40
2018-01-07T23:49:19.988Z,82.10
2018-01-07T23:51:47.458Z,82.10
2018-01-07T23:54:14.940Z,82.00
2018-01-07T23:56:42.405Z,82.20
2018-01-07T23:59:10.924Z,82.60
